sensor_id;sensor_type;location;lat;lon;timestamp;temperature;humidity
13320;DHT22;59599;47.608;12.190;2023-03-23T00:03:53;10.80;99.90
13320;DHT22;59599;47.608;12.190;2023-03-23T00:08:49;10.50;99.90
13320;DHT22;59599;47.608;12.190;2023-03-23T00:11:21;10.40;99.90
13320;DHT22;59599;47.608;12.190;2023-03-23T00:13:49;10.30;99.90
13320;DHT22;59599;47.608;12.190;2023-03-23T00:16:20;10.50;99.90
13320;DHT22;59599;47.608;12.190;2023-03-23T00:18:57;10.30;99.90
13320;DHT22;59599;47.608;12.190;2023-03-23T00:21:28;10.10;99.90
13320;DHT22;59599;47.608;12.190;2023-03-23T00:24:18;10.20;99.90
13320;DHT22;59599;47.608;12.190;2023-03-23T05:03:30;9.00;99.90
13320;DHT22;59599;47.608;12.190;2023-03-23T05:05:55;8.90;99.90
13320;DHT22;59599;47.608;12.190;2023-03-23T05:08:23;9.00;99.90
13320;DHT22;59599;47.608;12.190;2023-03-23T05:10:54;8.90;99.90
13320;DHT22;59599;47.608;12.190;2023-03-23T05:13:20;8.70;99.90
13320;DHT22;59599;47.608;12.190;2023-03-23T05:15:47;8.70;99.90
13320;DHT22;59599;47.608;12.190;2023-03-23T05:18:12;8.60;99.90
13320;DHT22;59599;47.608;12.190;2023-03-23T05:20:38;8.60;99.90
13320;DHT22;59599;47.608;12.190;2023-03-23T05:28:02;8.90;99.90
13320;DHT22;59599;47.608;12.190;2023-03-23T05:30:27;8.80;99.90
13320;DHT22;59599;47.608;12.190;2023-03-23T05:32:53;8.70;99.90
13320;DHT22;59599;47.608;12.190;2023-03-23T05:35:19;8.70;99.90
13320;DHT22;59599;47.608;12.190;2023-03-23T05:52:26;8.90;99.90
13320;DHT22;59599;47.608;12.190;2023-03-23T06:04:42;8.80;99.90
13320;DHT22;59599;47.608;12.190;2023-03-23T06:09:39;8.50;99.90
13320;DHT22;59599;47.608;12.190;2023-03-23T06:31:45;9.40;99.90
13320;DHT22;59599;47.608;12.190;2023-03-23T06:41:33;9.60;99.90
13320;DHT22;59599;47.608;12.190;2023-03-23T06:43:59;9.60;99.90
13320;DHT22;59599;47.608;12.190;2023-03-23T06:46:25;9.30;99.90
13320;DHT22;59599;47.608;12.190;2023-03-23T06:48:51;9.30;99.90
13320;DHT22;59599;47.608;12.190;2023-03-23T06:51:17;9.30;99.90
13320;DHT22;59599;47.608;12.190;2023-03-23T06:53:43;9.30;99.90
13320;DHT22;59599;47.608;12.190;2023-03-23T06:56:09;9.40;99.90
13320;DHT22;59599;47.608;12.190;2023-03-23T07:01:01;9.60;99.90
13320;DHT22;59599;47.608;12.190;2023-03-23T07:03:27;9.80;99.90
13320;DHT22;59599;47.608;12.190;2023-03-23T07:05:54;9.80;99.90
13320;DHT22;59599;47.608;12.190;2023-03-23T07:08:19;9.90;99.90
13320;DHT22;59599;47.608;12.190;2023-03-23T07:13:11;10.00;99.90
13320;DHT22;59599;47.608;12.190;2023-03-23T07:15:38;10.10;99.90
13320;DHT22;59599;47.608;12.190;2023-03-23T07:18:04;10.10;99.90
13320;DHT22;59599;47.608;12.190;2023-03-23T07:27:47;10.20;99.90
13320;DHT22;59599;47.608;12.190;2023-03-23T07:32:40;10.20;99.90
13320;DHT22;59599;47.608;12.190;2023-03-23T07:35:07;10.30;99.90
13320;DHT22;59599;47.608;12.190;2023-03-23T07:37:34;10.40;99.90
13320;DHT22;59599;47.608;12.190;2023-03-23T07:45:05;10.50;99.90
13320;DHT22;59599;47.608;12.190;2023-03-23T08:02:08;11.10;99.90
13320;DHT22;59599;47.608;12.190;2023-03-23T08:11:56;11.50;99.90
13320;DHT22;59599;47.608;12.190;2023-03-23T08:14:21;11.40;99.90
13320;DHT22;59599;47.608;12.190;2023-03-23T08:16:48;11.40;99.90
13320;DHT22;59599;47.608;12.190;2023-03-23T08:19:14;11.40;99.90
13320;DHT22;59599;47.608;12.190;2023-03-23T08:33:50;11.60;99.90
13320;DHT22;59599;47.608;12.190;2023-03-23T08:51:01;12.70;99.90
13320;DHT22;59599;47.608;12.190;2023-03-23T08:53:26;12.90;99.90
13320;DHT22;59599;47.608;12.190;2023-03-23T08:55:55;13.00;99.90
13320;DHT22;59599;47.608;12.190;2023-03-23T08:58:21;13.10;99.90
13320;DHT22;59599;47.608;12.190;2023-03-23T09:05:42;13.50;99.90
13320;DHT22;59599;47.608;12.190;2023-03-23T09:10:38;13.70;99.90
13320;DHT22;59599;47.608;12.190;2023-03-23T09:20:25;13.80;99.90
13320;DHT22;59599;47.608;12.190;2023-03-23T09:22:52;13.90;99.90
13320;DHT22;59599;47.608;12.190;2023-03-23T09:25:21;13.90;99.90
13320;DHT22;59599;47.608;12.190;2023-03-23T09:27:49;13.90;99.90
13320;DHT22;59599;47.608;12.190;2023-03-23T09:35:11;14.20;99.90
13320;DHT22;59599;47.608;12.190;2023-03-23T09:37:40;14.30;99.90
13320;DHT22;59599;47.608;12.190;2023-03-23T09:40:11;14.40;99.90
13320;DHT22;59599;47.608;12.190;2023-03-23T09:45:24;14.00;99.90
13320;DHT22;59599;47.608;12.190;2023-03-23T09:51:42;13.90;99.90
13320;DHT22;59599;47.608;12.190;2023-03-23T09:53:51;13.80;99.90
13320;DHT22;59599;47.608;12.190;2023-03-23T09:56:19;13.70;99.90
13320;DHT22;59599;47.608;12.190;2023-03-23T09:58:53;13.80;99.90
13320;DHT22;59599;47.608;12.190;2023-03-23T10:04:03;14.10;99.90
13320;DHT22;59599;47.608;12.190;2023-03-23T10:06:30;14.20;99.90
13320;DHT22;59599;47.608;12.190;2023-03-23T10:08:58;14.30;99.90
13320;DHT22;59599;47.608;12.190;2023-03-23T10:11:53;14.30;99.90
13320;DHT22;59599;47.608;12.190;2023-03-23T10:17:14;14.20;99.90
13320;DHT22;59599;47.608;12.190;2023-03-23T10:22:45;14.30;99.90
13320;DHT22;59599;47.608;12.190;2023-03-23T10:35:12;14.80;99.90
13320;DHT22;59599;47.608;12.190;2023-03-23T10:37:44;14.90;99.90
13320;DHT22;59599;47.608;12.190;2023-03-23T10:40:22;15.10;99.90
13320;DHT22;59599;47.608;12.190;2023-03-23T10:42:49;15.10;99.90
13320;DHT22;59599;47.608;12.190;2023-03-23T10:45:21;15.10;99.90
13320;DHT22;59599;47.608;12.190;2023-03-23T10:48:19;15.20;99.90
13320;DHT22;59599;47.608;12.190;2023-03-23T10:50:49;15.30;99.90
13320;DHT22;59599;47.608;12.190;2023-03-23T10:53:21;15.30;99.90
13320;DHT22;59599;47.608;12.190;2023-03-23T10:55:48;15.30;99.90
13320;DHT22;59599;47.608;12.190;2023-03-23T10:58:26;15.20;99.90
13320;DHT22;59599;47.608;12.190;2023-03-23T11:03:25;15.30;99.90
13320;DHT22;59599;47.608;12.190;2023-03-23T11:05:59;15.40;99.90
13320;DHT22;59599;47.608;12.190;2023-03-23T11:08:28;15.60;99.90
13320;DHT22;59599;47.608;12.190;2023-03-23T11:10:58;15.80;99.90
13320;DHT22;59599;47.608;12.190;2023-03-23T11:13:31;16.00;99.90
13320;DHT22;59599;47.608;12.190;2023-03-23T11:18:26;16.10;99.90
13320;DHT22;59599;47.608;12.190;2023-03-23T11:20:56;16.20;99.90
13320;DHT22;59599;47.608;12.190;2023-03-23T11:23:27;16.50;99.90
13320;DHT22;59599;47.608;12.190;2023-03-23T11:26:15;16.50;99.90
13320;DHT22;59599;47.608;12.190;2023-03-23T11:28:48;16.50;99.90
13320;DHT22;59599;47.608;12.190;2023-03-23T11:31:17;16.70;99.90
13320;DHT22;59599;47.608;12.190;2023-03-23T11:34:00;16.70;99.90
13320;DHT22;59599;47.608;12.190;2023-03-23T11:36:33;16.80;99.90
13320;DHT22;59599;47.608;12.190;2023-03-23T11:38:59;16.70;99.90
13320;DHT22;59599;47.608;12.190;2023-03-23T11:41:30;16.80;99.90
13320;DHT22;59599;47.608;12.190;2023-03-23T11:49:21;17.00;99.90
13320;DHT22;59599;47.608;12.190;2023-03-23T11:51:54;17.20;99.90
13320;DHT22;59599;47.608;12.190;2023-03-23T11:54:30;17.40;99.90
13320;DHT22;59599;47.608;12.190;2023-03-23T11:56:57;17.50;99.90
13320;DHT22;59599;47.608;12.190;2023-03-23T11:59:32;17.70;99.90
13320;DHT22;59599;47.608;12.190;2023-03-23T12:05:34;17.80;99.90
13320;DHT22;59599;47.608;12.190;2023-03-23T12:11:23;17.80;99.90
13320;DHT22;59599;47.608;12.190;2023-03-23T12:16:08;18.10;99.90
13320;DHT22;59599;47.608;12.190;2023-03-23T12:18:58;18.20;99.90
13320;DHT22;59599;47.608;12.190;2023-03-23T12:21:56;18.20;99.90
13320;DHT22;59599;47.608;12.190;2023-03-23T12:27:20;18.50;99.90
13320;DHT22;59599;47.608;12.190;2023-03-23T12:30:25;18.70;99.90
13320;DHT22;59599;47.608;12.190;2023-03-23T12:33:17;18.90;99.90
13320;DHT22;59599;47.608;12.190;2023-03-23T12:36:11;19.00;99.90
13320;DHT22;59599;47.608;12.190;2023-03-23T12:44:43;19.80;99.90
13320;DHT22;59599;47.608;12.190;2023-03-23T12:47:45;19.80;99.90
13320;DHT22;59599;47.608;12.190;2023-03-23T12:50:40;20.00;99.90
13320;DHT22;59599;47.608;12.190;2023-03-23T12:53:13;20.10;99.90
13320;DHT22;59599;47.608;12.190;2023-03-23T12:55:48;20.10;99.90
13320;DHT22;59599;47.608;12.190;2023-03-23T12:58:25;20.20;99.90
13320;DHT22;59599;47.608;12.190;2023-03-23T13:01:17;20.20;99.90
13320;DHT22;59599;47.608;12.190;2023-03-23T13:03:58;20.10;99.90
13320;DHT22;59599;47.608;12.190;2023-03-23T13:11:37;20.10;99.90
13320;DHT22;59599;47.608;12.190;2023-03-23T13:19:21;20.00;99.90
13320;DHT22;59599;47.608;12.190;2023-03-23T13:22:02;19.90;99.90
13320;DHT22;59599;47.608;12.190;2023-03-23T13:24:35;19.80;99.90
13320;DHT22;59599;47.608;12.190;2023-03-23T13:27:01;19.80;99.90
13320;DHT22;59599;47.608;12.190;2023-03-23T13:29:27;19.80;99.90
13320;DHT22;59599;47.608;12.190;2023-03-23T13:32:17;19.80;99.90
13320;DHT22;59599;47.608;12.190;2023-03-23T13:34:43;19.80;99.90
13320;DHT22;59599;47.608;12.190;2023-03-23T13:37:23;19.90;99.90
13320;DHT22;59599;47.608;12.190;2023-03-23T13:49:54;20.10;99.90
13320;DHT22;59599;47.608;12.190;2023-03-23T14:08:22;20.10;99.90
13320;DHT22;59599;47.608;12.190;2023-03-23T14:11:13;20.20;99.90
13320;DHT22;59599;47.608;12.190;2023-03-23T14:16:48;20.10;99.90
13320;DHT22;59599;47.608;12.190;2023-03-23T14:19:23;20.10;99.90
13320;DHT22;59599;47.608;12.190;2023-03-23T14:21:52;20.10;99.90
13320;DHT22;59599;47.608;12.190;2023-03-23T14:24:27;20.00;99.90
13320;DHT22;59599;47.608;12.190;2023-03-23T14:27:03;20.00;99.90
13320;DHT22;59599;47.608;12.190;2023-03-23T14:29:33;19.90;99.90
13320;DHT22;59599;47.608;12.190;2023-03-23T14:31:59;19.90;99.90
13320;DHT22;59599;47.608;12.190;2023-03-23T14:34:27;19.80;99.90
13320;DHT22;59599;47.608;12.190;2023-03-23T14:36:54;19.90;99.90
13320;DHT22;59599;47.608;12.190;2023-03-23T14:39:25;19.90;99.90
13320;DHT22;59599;47.608;12.190;2023-03-23T14:41:54;19.90;99.90
13320;DHT22;59599;47.608;12.190;2023-03-23T14:44:24;19.90;99.90
13320;DHT22;59599;47.608;12.190;2023-03-23T14:46:51;20.00;99.90
13320;DHT22;59599;47.608;12.190;2023-03-23T14:49:22;20.10;99.90
13320;DHT22;59599;47.608;12.190;2023-03-23T14:51:51;20.40;99.90
13320;DHT22;59599;47.608;12.190;2023-03-23T14:54:28;20.70;99.90
13320;DHT22;59599;47.608;12.190;2023-03-23T14:56:54;21.20;99.90
13320;DHT22;59599;47.608;12.190;2023-03-23T14:59:20;21.70;99.90
13320;DHT22;59599;47.608;12.190;2023-03-23T15:01:49;22.10;99.90
13320;DHT22;59599;47.608;12.190;2023-03-23T15:04:24;22.50;99.90
13320;DHT22;59599;47.608;12.190;2023-03-23T15:07:03;23.00;99.90
13320;DHT22;59599;47.608;12.190;2023-03-23T15:09:30;23.30;99.90
13320;DHT22;59599;47.608;12.190;2023-03-23T15:14:29;23.60;99.20
13320;DHT22;59599;47.608;12.190;2023-03-23T15:16:57;23.60;98.60
13320;DHT22;59599;47.608;12.190;2023-03-23T15:19:26;23.80;98.60
13320;DHT22;59599;47.608;12.190;2023-03-23T15:21:57;23.70;96.60
13320;DHT22;59599;47.608;12.190;2023-03-23T15:24:40;23.40;97.70
13320;DHT22;59599;47.608;12.190;2023-03-23T15:27:15;23.00;95.30
13320;DHT22;59599;47.608;12.190;2023-03-23T15:29:49;22.50;97.00
13320;DHT22;59599;47.608;12.190;2023-03-23T15:32:30;22.40;97.50
13320;DHT22;59599;47.608;12.190;2023-03-23T15:34:57;22.50;98.40
13320;DHT22;59599;47.608;12.190;2023-03-23T15:37:28;23.40;97.10
13320;DHT22;59599;47.608;12.190;2023-03-23T15:39:56;24.50;95.80
13320;DHT22;59599;47.608;12.190;2023-03-23T15:42:32;25.10;93.40
13320;DHT22;59599;47.608;12.190;2023-03-23T15:47:57;25.60;91.00
13320;DHT22;59599;47.608;12.190;2023-03-23T15:52:52;24.20;90.70
13320;DHT22;59599;47.608;12.190;2023-03-23T15:57:53;22.90;93.00
13320;DHT22;59599;47.608;12.190;2023-03-23T16:00:20;22.60;93.20
13320;DHT22;59599;47.608;12.190;2023-03-23T16:02:48;22.40;93.80
13320;DHT22;59599;47.608;12.190;2023-03-23T16:05:15;22.20;94.20
13320;DHT22;59599;47.608;12.190;2023-03-23T16:10:14;22.30;94.80
13320;DHT22;59599;47.608;12.190;2023-03-23T16:12:40;22.20;94.20
13320;DHT22;59599;47.608;12.190;2023-03-23T16:15:06;22.00;94.90
13320;DHT22;59599;47.608;12.190;2023-03-23T16:17:33;21.70;95.50
13320;DHT22;59599;47.608;12.190;2023-03-23T16:22:26;21.20;96.30
13320;DHT22;59599;47.608;12.190;2023-03-23T16:24:51;20.80;96.60
13320;DHT22;59599;47.608;12.190;2023-03-23T16:27:17;20.60;96.70
13320;DHT22;59599;47.608;12.190;2023-03-23T16:37:03;19.80;98.10
13320;DHT22;59599;47.608;12.190;2023-03-23T16:39:31;19.70;98.20
13320;DHT22;59599;47.608;12.190;2023-03-23T16:41:56;19.40;98.50
13320;DHT22;59599;47.608;12.190;2023-03-23T16:51:39;18.80;99.90
13320;DHT22;59599;47.608;12.190;2023-03-23T16:54:05;18.60;99.90
13320;DHT22;59599;47.608;12.190;2023-03-23T16:56:31;18.60;99.90
13320;DHT22;59599;47.608;12.190;2023-03-23T16:58:56;18.40;99.90
13320;DHT22;59599;47.608;12.190;2023-03-23T17:06:14;18.20;99.90
13320;DHT22;59599;47.608;12.190;2023-03-23T17:08:39;18.10;99.90
13320;DHT22;59599;47.608;12.190;2023-03-23T17:11:05;18.00;99.90
13320;DHT22;59599;47.608;12.190;2023-03-23T17:13:31;17.90;99.90
13320;DHT22;59599;47.608;12.190;2023-03-23T17:18:23;17.80;99.90
13320;DHT22;59599;47.608;12.190;2023-03-23T17:20:51;17.70;99.90
13320;DHT22;59599;47.608;12.190;2023-03-23T17:25:45;17.50;99.90
13320;DHT22;59599;47.608;12.190;2023-03-23T17:30:39;17.40;99.90
13320;DHT22;59599;47.608;12.190;2023-03-23T17:33:05;17.30;99.90
13320;DHT22;59599;47.608;12.190;2023-03-23T17:40:23;17.30;99.90
13320;DHT22;59599;47.608;12.190;2023-03-23T17:42:49;17.50;99.90
13320;DHT22;59599;47.608;12.190;2023-03-23T17:45:14;17.50;99.90
13320;DHT22;59599;47.608;12.190;2023-03-23T17:47:40;17.40;99.90
13320;DHT22;59599;47.608;12.190;2023-03-23T17:50:06;17.30;99.90
13320;DHT22;59599;47.608;12.190;2023-03-23T17:52:32;17.20;99.90
13320;DHT22;59599;47.608;12.190;2023-03-23T18:04:43;16.80;99.90
13320;DHT22;59599;47.608;12.190;2023-03-23T18:07:09;16.80;99.90
13320;DHT22;59599;47.608;12.190;2023-03-23T18:09:35;16.70;99.90
13320;DHT22;59599;47.608;12.190;2023-03-23T18:12:00;16.60;99.90
13320;DHT22;59599;47.608;12.190;2023-03-23T18:19:18;16.70;99.90
13320;DHT22;59599;47.608;12.190;2023-03-23T18:21:44;16.70;99.90
13320;DHT22;59599;47.608;12.190;2023-03-23T18:24:09;16.70;99.90
13320;DHT22;59599;47.608;12.190;2023-03-23T18:26:36;16.70;99.90
13320;DHT22;59599;47.608;12.190;2023-03-23T18:29:01;16.70;99.90
13320;DHT22;59599;47.608;12.190;2023-03-23T18:31:27;16.60;99.90
13320;DHT22;59599;47.608;12.190;2023-03-23T18:33:53;16.50;99.90
13320;DHT22;59599;47.608;12.190;2023-03-23T18:36:21;16.40;99.90
13320;DHT22;59599;47.608;12.190;2023-03-23T18:38:48;16.40;99.90
13320;DHT22;59599;47.608;12.190;2023-03-23T18:41:14;16.30;99.90
13320;DHT22;59599;47.608;12.190;2023-03-23T18:43:40;16.20;99.90
13320;DHT22;59599;47.608;12.190;2023-03-23T18:46:06;16.10;99.90
13320;DHT22;59599;47.608;12.190;2023-03-23T18:48:32;16.10;99.90
13320;DHT22;59599;47.608;12.190;2023-03-23T18:50:59;16.00;99.90
13320;DHT22;59599;47.608;12.190;2023-03-23T18:53:26;15.90;99.90
13320;DHT22;59599;47.608;12.190;2023-03-23T18:55:52;15.90;99.90
13320;DHT22;59599;47.608;12.190;2023-03-23T18:58:19;15.80;99.90
13320;DHT22;59599;47.608;12.190;2023-03-23T19:00:45;15.70;99.90
13320;DHT22;59599;47.608;12.190;2023-03-23T19:03:12;15.70;99.90
13320;DHT22;59599;47.608;12.190;2023-03-23T19:05:39;15.50;99.90
13320;DHT22;59599;47.608;12.190;2023-03-23T19:08:08;15.50;99.90
13320;DHT22;59599;47.608;12.190;2023-03-23T19:10:39;15.40;99.90
13320;DHT22;59599;47.608;12.190;2023-03-23T19:13:05;15.30;99.90
13320;DHT22;59599;47.608;12.190;2023-03-23T19:17:56;15.40;99.90
13320;DHT22;59599;47.608;12.190;2023-03-23T19:20:25;15.30;99.90
13320;DHT22;59599;47.608;12.190;2023-03-23T19:22:51;15.20;99.90
13320;DHT22;59599;47.608;12.190;2023-03-23T19:25:17;15.10;99.90
13320;DHT22;59599;47.608;12.190;2023-03-23T19:27:43;15.00;99.90
13320;DHT22;59599;47.608;12.190;2023-03-23T19:30:09;15.00;99.90
13320;DHT22;59599;47.608;12.190;2023-03-23T19:32:35;14.90;99.90
13320;DHT22;59599;47.608;12.190;2023-03-23T19:35:01;15.00;99.90
13320;DHT22;59599;47.608;12.190;2023-03-23T19:37:28;15.00;99.90
13320;DHT22;59599;47.608;12.190;2023-03-23T19:42:20;14.90;99.90
13320;DHT22;59599;47.608;12.190;2023-03-23T19:44:46;14.70;99.90
13320;DHT22;59599;47.608;12.190;2023-03-23T19:47:12;14.80;99.90
13320;DHT22;59599;47.608;12.190;2023-03-23T19:52:04;14.70;99.90
13320;DHT22;59599;47.608;12.190;2023-03-23T19:54:30;14.70;99.90
13320;DHT22;59599;47.608;12.190;2023-03-23T19:56:57;14.70;99.90
13320;DHT22;59599;47.608;12.190;2023-03-23T20:09:09;14.60;99.90
13320;DHT22;59599;47.608;12.190;2023-03-23T20:11:34;14.60;99.90
13320;DHT22;59599;47.608;12.190;2023-03-23T20:16:26;14.60;99.90
13320;DHT22;59599;47.608;12.190;2023-03-23T20:18:52;14.50;99.90
13320;DHT22;59599;47.608;12.190;2023-03-23T20:21:20;14.40;99.90
13320;DHT22;59599;47.608;12.190;2023-03-23T20:23:47;14.40;99.90
13320;DHT22;59599;47.608;12.190;2023-03-23T20:26:20;14.30;99.90
13320;DHT22;59599;47.608;12.190;2023-03-23T20:31:15;14.30;99.90
13320;DHT22;59599;47.608;12.190;2023-03-23T20:33:41;14.20;99.90
13320;DHT22;59599;47.608;12.190;2023-03-23T20:36:07;14.20;99.90
13320;DHT22;59599;47.608;12.190;2023-03-23T20:38:34;14.10;99.90
13320;DHT22;59599;47.608;12.190;2023-03-23T20:41:03;14.10;99.90
13320;DHT22;59599;47.608;12.190;2023-03-23T20:43:36;14.10;99.90
13320;DHT22;59599;47.608;12.190;2023-03-23T20:46:03;14.10;99.90
13320;DHT22;59599;47.608;12.190;2023-03-23T20:48:31;14.10;99.90
13320;DHT22;59599;47.608;12.190;2023-03-23T20:53:25;14.10;99.90
13320;DHT22;59599;47.608;12.190;2023-03-23T20:55:54;14.00;99.90
13320;DHT22;59599;47.608;12.190;2023-03-23T20:58:20;14.10;99.90
13320;DHT22;59599;47.608;12.190;2023-03-23T21:00:49;14.00;99.90
13320;DHT22;59599;47.608;12.190;2023-03-23T21:05:42;13.90;99.90
13320;DHT22;59599;47.608;12.190;2023-03-23T21:08:09;13.80;99.90
13320;DHT22;59599;47.608;12.190;2023-03-23T21:10:38;13.80;99.90
13320;DHT22;59599;47.608;12.190;2023-03-23T21:13:04;13.90;99.90
13320;DHT22;59599;47.608;12.190;2023-03-23T21:17:58;13.60;99.90
13320;DHT22;59599;47.608;12.190;2023-03-23T21:20:24;13.70;99.90
13320;DHT22;59599;47.608;12.190;2023-03-23T21:22:49;13.70;99.90
13320;DHT22;59599;47.608;12.190;2023-03-23T21:30:07;13.80;99.90
13320;DHT22;59599;47.608;12.190;2023-03-23T21:32:33;13.80;99.90
13320;DHT22;59599;47.608;12.190;2023-03-23T21:37:28;13.80;99.90
13320;DHT22;59599;47.608;12.190;2023-03-23T21:39:54;13.80;99.90
13320;DHT22;59599;47.608;12.190;2023-03-23T21:42:20;13.80;99.90
13320;DHT22;59599;47.608;12.190;2023-03-23T21:49:38;13.60;99.90
13320;DHT22;59599;47.608;12.190;2023-03-23T21:52:04;13.60;99.90
13320;DHT22;59599;47.608;12.190;2023-03-23T21:54:30;13.60;99.90
13320;DHT22;59599;47.608;12.190;2023-03-23T21:56:59;13.60;99.90
13320;DHT22;59599;47.608;12.190;2023-03-23T21:59:26;13.50;99.90
13320;DHT22;59599;47.608;12.190;2023-03-23T22:04:19;13.50;99.90
13320;DHT22;59599;47.608;12.190;2023-03-23T22:06:45;13.50;99.90
13320;DHT22;59599;47.608;12.190;2023-03-23T22:11:38;13.30;99.90
13320;DHT22;59599;47.608;12.190;2023-03-23T22:14:04;13.10;99.90
13320;DHT22;59599;47.608;12.190;2023-03-23T22:16:30;13.00;99.90
13320;DHT22;59599;47.608;12.190;2023-03-23T22:18:57;13.00;99.90
13320;DHT22;59599;47.608;12.190;2023-03-23T22:21:24;13.00;99.90
13320;DHT22;59599;47.608;12.190;2023-03-23T22:23:52;13.00;99.90
13320;DHT22;59599;47.608;12.190;2023-03-23T22:26:18;13.00;99.90
13320;DHT22;59599;47.608;12.190;2023-03-23T22:28:45;13.10;99.90
13320;DHT22;59599;47.608;12.190;2023-03-23T22:31:15;12.80;99.90
13320;DHT22;59599;47.608;12.190;2023-03-23T22:33:44;12.90;99.90
13320;DHT22;59599;47.608;12.190;2023-03-23T22:36:10;12.80;99.90
13320;DHT22;59599;47.608;12.190;2023-03-23T22:38:38;12.80;99.90
13320;DHT22;59599;47.608;12.190;2023-03-23T22:41:05;12.80;99.90
13320;DHT22;59599;47.608;12.190;2023-03-23T22:43:35;12.80;99.90
13320;DHT22;59599;47.608;12.190;2023-03-23T22:46:02;12.80;99.90
13320;DHT22;59599;47.608;12.190;2023-03-23T22:48:28;12.80;99.90
13320;DHT22;59599;47.608;12.190;2023-03-23T22:50:54;12.80;99.90
13320;DHT22;59599;47.608;12.190;2023-03-23T22:55:48;12.70;99.90
13320;DHT22;59599;47.608;12.190;2023-03-23T22:58:15;12.70;99.90
